Flight Track Log - Related Links

Times and Time Zones

All times are in EDT time to prevent confusion due to time zone crossing. See the UAL4530 flight status page for this flight to view local times or setup timezone preferences in your user account.

Time Position Orientation Groundspeed Altitude Reporting Facility
EDT Latitude Longitude Course Direction KTS MPH feet Rate Location/Type
Thu 12:35:16 PM 41.2906 -95.8867 207° Southwest 187 215 1,400  Level Minneapolis Center
Thu 12:36:17 PM 41.2300 -95.8911 183° South 220 253 3,000 1,526 Climbing Minneapolis Center
Thu 12:37:10 PM 41.1800 -95.8944 183° South 247 284 4,300 1,774 Climbing Minneapolis Center
Thu 12:38:00 PM 41.0596 -95.7802 203° Southwest  Level FlightAware
Thu 12:38:12 PM 41.1025 -95.9028 185° South 263 303 6,400  Level Minneapolis Center
Thu 12:39:00 PM 40.9712 -95.8307 203° Southwest  Level FlightAware
Thu 12:39:14 PM 41.0044 -95.9100 183° South 279 321 8,300  Level Minneapolis Center
Thu 12:40:00 PM 40.8851 -95.8878 207° Southwest  Level FlightAware
Thu 12:40:16 PM 40.9153 -95.9133 182° South 299 344 10,100  Level Minneapolis Center
Thu 12:41:18 PM 40.8233 -95.9128 180° South 315 362 10,900 774 Climbing Minneapolis Center
Thu 12:42:20 PM 40.7300 -95.9531 198° South 345 397 11,700 968 Climbing Minneapolis Center
Thu 12:43:22 PM 40.6375 -96.0069 204° Southwest 358 412 12,900 968 Climbing Minneapolis Center
Thu 12:44:24 PM 40.5417 -96.0611 203° Southwest 365 420 13,700 1,016 Climbing Minneapolis Center
Thu 12:45:26 PM 40.4228 -96.1294 204° Southwest 378 435 15,000 1,113 Climbing Minneapolis Center
Thu 12:46:28 PM 40.3225 -96.1853 203° Southwest 384 442 16,000 960 Climbing Minneapolis Center
Thu 12:47:31 PM 40.2225 -96.2428 204° Southwest 390 449 17,000 816 Climbing Minneapolis Center
Thu 12:48:33 PM 40.1239 -96.2997 204° Southwest 388 447 17,700 887 Climbing Minneapolis Center
Thu 12:49:26 PM 40.0247 -96.3519 202° Southwest 388 447 18,700 1,034 Climbing Kansas Center
Thu 12:50:29 PM 39.9286 -96.4064 203° Southwest 391 450 19,700 968 Climbing Kansas Center
Thu 12:51:30 PM 39.8219 -96.4656 203° Southwest 396 456 20,700 968 Climbing Kansas Center
Thu 12:52:33 PM 39.7256 -96.5200 203° Southwest 398 458 21,700 1,016 Climbing Kansas Center
Thu 12:53:34 PM 39.6111 -96.5825 203° Southwest 400 460 22,800 968 Climbing Kansas Center
Thu 12:54:37 PM 39.5131 -96.6369 203° Southwest 400 460 23,700 1,016 Climbing Kansas Center
Thu 12:55:38 PM 39.3972 -96.7006 203° Southwest 403 464 24,900 1,008 Climbing Kansas Center
Thu 12:56:42 PM 39.2981 -96.7542 203° Southwest 403 464 25,800 968 Climbing Kansas Center
Thu 12:57:42 PM 39.1833 -96.8158 203° Southwest 401 461 26,900 968 Climbing Kansas Center
Thu 12:58:46 PM 39.0853 -96.8689 203° Southwest 401 461 27,800 1,008 Climbing Kansas Center
Thu 12:59:47 PM 38.9700 -96.9342 204° Southwest 398 458 29,000 1,082 Climbing Kansas Center
Thu 01:00:48 PM 38.8572 -96.9497 186° South 409 471 30,000 960 Climbing Kansas Center
Thu 01:01:52 PM 38.7428 -96.9489 180° South 411 473 31,000 968 Climbing Kansas Center
Thu 01:02:52 PM 38.6281 -96.9478 180° South 412 474 32,000 992 Climbing Kansas Center
Thu 01:03:53 PM 38.5117 -96.9469 180° South 415 478 33,000 960 Climbing Kansas Center
Thu 01:04:57 PM 38.3956 -96.9453 179° South 416 479 34,000 484 Climbing Kansas Center
Thu 01:05:57 PM 38.2772 -96.9444 180° South 422 486 34,000  Level Kansas Center
Thu 01:07:02 PM 38.1250 -96.9439 180° South 451 519 34,000  Level Kansas Center
Thu 01:08:03 PM 37.9972 -96.9428 180° South 455 524 34,000 347 Level Kansas Center
Thu 01:09:03 PM 37.8711 -96.9417 180° South 452 520 34,700 960 Climbing Kansas Center
Thu 01:10:08 PM 37.7525 -96.9403 179° South 428 493 36,000 624 Climbing Kansas Center
Thu 01:11:08 PM 37.6311 -96.9389 179° South 432 497 36,000 488 Level Kansas Center
Thu 01:12:11 PM 37.5083 -96.9383 180° South 437 503 37,000 484 Climbing Kansas Center
Thu 01:13:12 PM 37.3869 -96.9369 179° South 435 501 37,000  Level Kansas Center
Thu 01:14:16 PM 37.2372 -96.9358 180° South 446 513 37,000  Level Kansas Center
Thu 01:15:16 PM 37.1117 -96.9350 180° South 449 517 37,000  Level Kansas Center
Thu 01:16:18 PM 36.9869 -96.9342 180° South 447 514 37,000  Level Kansas Center
Thu 01:17:21 PM 36.8639 -96.9333 180° South 444 511 37,000  Level Kansas Center
Thu 01:18:25 PM 36.7328 -96.9283 178° South 441 507 37,000  Level Kansas Center
Thu 01:19:25 PM 36.6122 -96.9283 180° South 437 503 37,000  Level Kansas Center
Thu 01:20:28 PM 36.4906 -96.9267 179° South 436 502 37,000  Level Kansas Center
Thu 01:21:30 PM 36.3692 -96.9267 180° South 436 502 37,000  Level Kansas Center
Thu 01:22:30 PM 36.2486 -96.9294 181° South 433 498 37,000  Level Kansas Center
Thu 01:23:34 PM 36.1042 -96.9267 179° South 432 497 37,000  Level Kansas Center
Thu 01:24:36 PM 35.9833 -96.9261 180° South 433 498 37,000  Level Kansas Center
Thu 01:25:37 PM 35.8625 -96.9247 179° South 432 497 37,000  Level Kansas Center
Thu 01:26:39 PM 35.7428 -96.9239 180° South 430 495 37,000  Level Kansas Center
Thu 01:27:42 PM 35.6217 -96.9225 179° South 432 497 37,000  Level Kansas Center
Thu 01:28:25 PM 35.5242 -96.9214 179° South 446 513 37,000  Level Fort Center
Thu 01:29:25 PM 35.3886 -96.9194 179° South 441 507 37,000  Level Fort Center
Thu 01:30:25 PM 35.2656 -96.9178 179° South 441 507 37,000  Level Fort Center
Thu 01:31:25 PM 35.1425 -96.9211 181° South 441 507 37,000  Level Fort Center
Thu 01:32:25 PM 35.0214 -96.9192 179° South 441 507 37,000  Level Fort Center
Thu 01:33:25 PM 34.9006 -96.9197 180° South 441 507 37,000  Level Fort Center
Thu 01:34:25 PM 34.7794 -96.9181 179° South 436 502 37,000  Level Fort Center
Thu 01:35:25 PM 34.6606 -96.9186 180° South 436 502 37,000  Level Fort Center
Thu 01:36:25 PM 34.5417 -96.9169 179° South 431 496 37,000  Level Fort Center
Thu 01:37:25 PM 34.4247 -96.9150 179° South 426 490 37,000  Level Fort Center
Thu 01:38:25 PM 34.3081 -96.9156 180° South 426 490 37,000  Level Fort Center
Thu 01:39:25 PM 34.1911 -96.9139 179° South 421 484 37,000  Level Fort Center
Thu 01:40:25 PM 34.0700 -96.9169 181° South 421 484 37,000  Level Fort Center
Thu 01:41:25 PM 33.9553 -96.9128 178° South 421 484 37,000  Level Fort Center
Thu 01:42:25 PM 33.8342 -96.9133 180° South 421 484 37,000  Level Fort Center
Thu 01:43:25 PM 33.7194 -96.9117 179° South 421 484 37,000  Level Fort Center
Thu 01:44:25 PM 33.5964 -96.9122 180° South 421 484 37,000 -100 Level Fort Center
Thu 01:45:25 PM 33.4753 -96.9081 178° South 428 493 36,800 -650 Descending Fort Center
Thu 01:46:25 PM 33.3542 -96.9111 181° South 439 505 35,700 -900 Descending Fort Center
Thu 01:47:25 PM 33.2436 -96.9067 178° South 439 505 35,000 -350 Descending Fort Center
Thu 01:48:25 PM 33.1100 -96.9050 179° South 439 505 35,000  Level Fort Center
Thu 01:49:25 PM 33.0036 -96.9056 180° South 439 505 35,000  Level Fort Center
Thu 01:50:25 PM 32.8719 -96.8964 177° South 434 499 35,000  Level Fort Center
Thu 01:51:25 PM 32.7781 -96.8722 168° South 434 499 35,000  Level Fort Center
Thu 01:52:25 PM 32.6378 -96.8361 168° South 439 505 35,000  Level Fort Center
Thu 01:53:25 PM 32.5314 -96.8047 166° South 434 499 35,000  Level Fort Center
Thu 01:54:25 PM 32.4039 -96.7686 167° South 428 493 35,000  Level Fort Center
Thu 01:55:25 PM 32.2972 -96.7375 166° South 433 498 35,000  Level Fort Center
Thu 01:56:25 PM 32.1675 -96.6992 166° South 433 498 35,000  Level Fort Center
Thu 01:57:25 PM 32.0544 -96.6683 167° South 431 496 35,000  Level Fort Center
Thu 01:58:25 PM 31.9353 -96.6300 165° South 436 502 35,000  Level Fort Center
Thu 01:59:25 PM 31.8183 -96.5992 167° South 436 502 35,000 -74 Level Fort Center
Thu 01:59:46 PM 31.7769 -96.5872 166° South 430 495 34,900 -1,229 Descending Houston Center
Thu 02:00:48 PM 31.6561 -96.5531 166° South 438 504 33,300 -1,645 Descending Houston Center
Thu 02:01:50 PM 31.5367 -96.5181 166° South 438 504 31,500 -1,776 Descending Houston Center
Thu 02:02:53 PM 31.4239 -96.4533 154° Southeast 441 507 29,600 -1,632 Descending Houston Center
Thu 02:03:55 PM 31.3111 -96.3833 152° Southeast 448 516 28,100 -1,403 Descending Houston Center
Thu 02:04:57 PM 31.1958 -96.3133 153° Southeast 458 527 26,700 -1,452 Descending Houston Center
Thu 02:05:59 PM 31.0842 -96.2461 153° Southeast 447 514 25,100 -1,839 Descending Houston Center
Thu 02:07:01 PM 30.9761 -96.1778 152° Southeast 438 504 22,900 -2,371 Descending Houston Center
Thu 02:08:03 PM 30.8519 -96.1044 153° Southeast 424 488 20,200 -2,323 Descending Houston Center
Thu 02:09:05 PM 30.7550 -96.0447 152° Southeast 397 457 18,100 -2,064 Descending Houston Center
Thu 02:10:08 PM 30.6586 -95.9861 152° Southeast 388 447 15,900 -2,084 Descending Houston Center
Thu 02:10:40 PM 30.6083 -95.9567 153° Southeast 376 433 14,800 -2,032 Descending Houston Center
Thu 02:11:10 PM 30.5675 -95.9308 151° Southeast 373 429 13,800 -1,884 Descending Houston Center
Thu 02:12:06 PM 30.4753 -95.8750 152° Southeast 371 427 12,100 -974 Descending Houston Center
Thu 02:13:07 PM 30.3886 -95.7978 142° Southeast 372 428 11,900 -738 Descending Houston Center
Thu 02:14:08 PM 30.3125 -95.7172 138° Southeast 374 430 10,600 -934 Descending Houston Center
Thu 02:15:09 PM 30.2358 -95.6344 137° Southeast 363 418 10,000 -293 Descending Houston Center
Thu 02:16:11 PM 30.1617 -95.5586 139° Southeast 330 380 10,000 -1,119 Level Houston Center
Thu 02:17:23 PM 30.0986 -95.4911 137° Southeast 286 329 7,500 -1,791 Descending Houston Center
Thu 02:18:25 PM 30.1047 -95.4031 85° East 274 315 6,000 -804 Descending Houston Center
Thu 02:19:15 PM 30.1069 -95.3236 88° East 257 296 6,000 -971 Level Houston Center
Thu 02:20:10 PM 30.1064 -95.2489 90° East 247 284 4,300 -1,622 Descending Houston Center
Thu 02:20:29 PM 30.1064 -95.2397 90° East 256 295 4,000 -1,588 Descending Houston Center
Thu 02:21:18 PM 30.0883 -95.1689 106° East 227 261 2,500 -1,837 Descending Houston Center

Login

Don't have an account? Register now (free) for customized features, flight alerts, and more!